Time;durP1;ratioP1;P1;durP2;ratioP2;P2;SDS_P1;SDS_P2;PMS_P1;PMS_P2;Temp;Humidity;BMP_temperature;BMP_pressure;BME280_temperature;BME280_humidity;BME280_pressure;Samples;Min_cycle;Max_cycle;Signal;HPM_P1;HPM_P2
2023/03/11 00:02:06;;;;;;;12.68;1.98;;;4.00;99.90;;;;;;5015346;28;20046;-71
2023/03/11 00:04:32;;;;;;;8.45;2.08;;;4.00;99.90;;;;;;4997468;28;20471;-71
2023/03/11 00:06:58;;;;;;;11.20;1.80;;;4.00;99.90;;;;;;5007130;28;20387;-72
2023/03/11 00:09:23;;;;;;;6.30;2.10;;;3.90;99.90;;;;;;5002891;28;20026;-72
2023/03/11 00:11:49;;;;;;;14.80;2.60;;;3.90;99.90;;;;;;5005940;28;20037;-72
2023/03/11 00:14:15;;;;;;;17.63;1.85;;;4.00;99.90;;;;;;5000971;28;20607;-71
2023/03/11 00:16:40;;;;;;;6.95;1.95;;;4.00;99.90;;;;;;5005022;28;20040;-71
2023/03/11 00:19:06;;;;;;;9.85;2.22;;;4.00;99.90;;;;;;5014784;28;20372;-72
2023/03/11 00:21:32;;;;;;;8.43;2.28;;;3.90;99.90;;;;;;4994975;28;20434;-71
2023/03/11 00:24:00;;;;;;;6.97;1.80;;;4.00;99.90;;;;;;5025855;28;20461;-71
2023/03/11 00:26:26;;;;;;;11.50;1.77;;;3.90;99.90;;;;;;5008157;28;20036;-71
2023/03/11 00:28:51;;;;;;;6.32;2.00;;;3.90;99.90;;;;;;4998477;28;20075;-71
2023/03/11 00:31:17;;;;;;;10.02;1.98;;;3.90;99.90;;;;;;5001236;28;20022;-72
2023/03/11 00:33:43;;;;;;;9.63;1.63;;;4.00;99.90;;;;;;5009581;28;20041;-72
2023/03/11 00:36:22;;;;;;;13.70;2.42;;;3.90;99.90;;;;;;5002461;28;20033;-71
2023/03/11 00:38:48;;;;;;;9.35;1.42;;;3.80;99.90;;;;;;5013912;28;20031;-71
2023/03/11 00:41:15;;;;;;;6.28;1.92;;;3.80;99.90;;;;;;5011227;28;20026;-71
2023/03/11 00:43:40;;;;;;;10.18;2.28;;;3.90;99.90;;;;;;4997019;28;20031;-72
2023/03/11 00:46:06;;;;;;;10.60;2.05;;;3.80;99.90;;;;;;5032834;28;20029;-71
2023/03/11 00:48:31;;;;;;;10.73;2.33;;;3.70;99.90;;;;;;4984143;28;20079;-71
2023/03/11 00:50:57;;;;;;;16.13;1.90;;;3.70;99.90;;;;;;5003982;28;20037;-71
2023/03/11 00:53:23;;;;;;;9.82;2.28;;;3.70;99.90;;;;;;5003476;28;20034;-72
2023/03/11 00:55:48;;;;;;;8.55;1.90;;;3.80;99.90;;;;;;4998771;28;20498;-71
2023/03/11 00:58:14;;;;;;;8.68;2.10;;;3.80;99.90;;;;;;5008786;28;20030;-71
2023/03/11 01:00:40;;;;;;;11.95;2.20;;;3.80;99.90;;;;;;4998005;28;20023;-71
2023/03/11 01:03:06;;;;;;;7.72;1.83;;;3.80;99.90;;;;;;5012604;28;20015;-71
2023/03/11 01:05:33;;;;;;;11.07;2.03;;;3.70;99.90;;;;;;5016366;28;20030;-71
2023/03/11 01:07:59;;;;;;;10.75;2.20;;;3.60;99.90;;;;;;4998406;28;20031;-71
2023/03/11 01:10:25;;;;;;;11.75;2.13;;;3.60;99.90;;;;;;4996132;28;20073;-71
2023/03/11 01:12:51;;;;;;;11.50;2.60;;;3.40;99.90;;;;;;4998043;28;20122;-71
2023/03/11 01:15:28;;;;;;;10.85;2.47;;;3.40;99.90;;;;;;4991618;28;20529;-72
2023/03/11 01:17:55;;;;;;;11.65;1.75;;;3.50;99.90;;;;;;4989594;28;20058;-71
2023/03/11 01:20:21;;;;;;;9.80;2.03;;;3.50;99.90;;;;;;5012489;28;20034;-72
2023/03/11 01:22:48;;;;;;;10.40;2.47;;;3.50;99.90;;;;;;5009206;28;20042;-71
2023/03/11 01:25:16;;;;;;;10.02;2.45;;;3.50;99.90;;;;;;5002928;28;20026;-72
2023/03/11 01:27:43;;;;;;;12.18;2.20;;;3.50;99.90;;;;;;4983078;28;20123;-72
2023/03/11 01:30:13;;;;;;;6.63;1.95;;;3.50;99.90;;;;;;5002615;28;20019;-71
2023/03/11 01:32:38;;;;;;;10.50;2.88;;;3.50;99.90;;;;;;5001826;28;20030;-71
2023/03/11 01:35:04;;;;;;;10.55;3.28;;;3.50;99.90;;;;;;5000378;28;20032;-71
2023/03/11 01:37:30;;;;;;;10.75;2.63;;;3.50;99.90;;;;;;5014343;28;20525;-71
2023/03/11 01:39:56;;;;;;;8.30;2.20;;;3.50;99.90;;;;;;5010487;28;20109;-71
2023/03/11 01:42:21;;;;;;;13.45;2.90;;;3.50;99.90;;;;;;4999466;28;20023;-71
2023/03/11 01:44:47;;;;;;;15.20;3.33;;;3.50;99.90;;;;;;5014273;28;20485;-71
2023/03/11 01:47:12;;;;;;;11.85;3.10;;;3.50;99.90;;;;;;5006666;28;20071;-71
2023/03/11 01:49:41;;;;;;;8.70;3.00;;;3.50;99.90;;;;;;4999827;28;20025;-71
2023/03/11 01:52:07;;;;;;;9.02;2.75;;;3.50;99.90;;;;;;4996479;28;20389;-71
2023/03/11 01:54:37;;;;;;;6.85;2.40;;;3.50;99.90;;;;;;5010315;28;20077;-71
2023/03/11 01:57:10;;;;;;;11.27;3.00;;;3.50;99.90;;;;;;4991415;28;20023;-71
2023/03/11 01:59:40;;;;;;;14.98;2.58;;;3.50;99.90;;;;;;5016023;28;20113;-71
2023/03/11 02:02:18;;;;;;;10.32;2.65;;;3.50;99.90;;;;;;5009756;28;20026;-71
2023/03/11 02:04:44;;;;;;;19.80;3.03;;;3.50;99.90;;;;;;5021827;28;20054;-71
2023/03/11 02:07:11;;;;;;;13.85;2.67;;;3.50;99.90;;;;;;5018958;28;20156;-71
2023/03/11 02:09:37;;;;;;;13.05;3.17;;;3.50;99.90;;;;;;5004156;28;20129;-71
2023/03/11 02:12:06;;;;;;;5.10;2.40;;;3.40;99.90;;;;;;4995865;28;20034;-71
2023/03/11 02:14:34;;;;;;;13.82;3.13;;;3.40;99.90;;;;;;5015538;28;20015;-71
2023/03/11 02:17:00;;;;;;;9.60;3.17;;;3.40;99.90;;;;;;5003703;28;20022;-70
2023/03/11 02:19:49;;;;;;;12.77;2.83;;;3.40;99.90;;;;;;5010118;28;20045;-71
2023/03/11 02:22:15;;;;;;;14.10;3.22;;;3.40;99.90;;;;;;4988666;28;20039;-71
2023/03/11 02:25:19;;;;;;;12.40;2.95;;;3.40;99.90;;;;;;5011206;28;20023;-71
2023/03/11 02:27:48;;;;;;;12.45;3.15;;;3.40;99.90;;;;;;4987372;28;20495;-71
2023/03/11 02:30:15;;;;;;;11.73;3.55;;;3.40;99.90;;;;;;5009187;28;20054;-71
2023/03/11 02:32:43;;;;;;;12.00;2.67;;;3.40;99.90;;;;;;5014870;28;20030;-71
2023/03/11 02:35:09;;;;;;;12.02;2.92;;;3.30;99.90;;;;;;5017209;28;22607;-71
2023/03/11 02:37:35;;;;;;;13.70;3.42;;;3.40;99.90;;;;;;5001597;28;20031;-71
2023/03/11 02:40:30;;;;;;;15.00;3.80;;;3.30;99.90;;;;;;4990099;28;20040;-70
2023/03/11 02:42:59;;;;;;;13.85;3.13;;;3.40;99.90;;;;;;5000133;28;20033;-71
2023/03/11 02:45:26;;;;;;;9.88;2.60;;;3.30;99.90;;;;;;5010347;28;20498;-71
2023/03/11 02:47:56;;;;;;;28.25;4.15;;;3.30;99.90;;;;;;5004867;28;20033;-71
2023/03/11 02:50:24;;;;;;;7.72;2.88;;;3.30;99.90;;;;;;5012500;28;20368;-71
2023/03/11 02:52:50;;;;;;;11.95;3.28;;;3.30;99.90;;;;;;5011796;28;20388;-70
2023/03/11 02:55:17;;;;;;;9.70;3.38;;;3.30;99.90;;;;;;5006517;28;20026;-70
2023/03/11 02:57:43;;;;;;;11.15;3.33;;;3.30;99.90;;;;;;4979708;28;20033;-71
2023/03/11 03:00:13;;;;;;;12.05;3.78;;;3.20;99.90;;;;;;4995743;28;20548;-71
2023/03/11 03:02:39;;;;;;;12.63;3.30;;;3.20;99.90;;;;;;4979747;28;20045;-71
2023/03/11 03:05:06;;;;;;;8.30;3.15;;;3.20;99.90;;;;;;4993062;28;20023;-71
2023/03/11 03:07:31;;;;;;;14.43;3.72;;;3.10;99.90;;;;;;4985022;28;20035;-70
2023/03/11 03:09:57;;;;;;;11.68;3.45;;;3.10;99.90;;;;;;4988081;28;20049;-71
2023/03/11 03:12:23;;;;;;;12.32;4.00;;;3.10;99.90;;;;;;4996077;28;20026;-71
2023/03/11 03:14:49;;;;;;;13.02;3.83;;;3.10;99.90;;;;;;4996202;28;20463;-71
2023/03/11 03:17:14;;;;;;;10.45;3.28;;;3.10;99.90;;;;;;4987642;28;20387;-71
2023/03/11 03:19:40;;;;;;;10.68;3.50;;;3.20;99.90;;;;;;4982629;28;20055;-71
2023/03/11 03:22:06;;;;;;;14.27;3.35;;;3.20;99.90;;;;;;4992129;28;20026;-71
2023/03/11 03:24:31;;;;;;;17.33;4.68;;;3.10;99.90;;;;;;4996036;28;20023;-71
2023/03/11 03:26:57;;;;;;;12.80;3.70;;;3.20;99.90;;;;;;4993927;28;20100;-71
2023/03/11 03:29:22;;;;;;;11.43;3.75;;;3.20;99.90;;;;;;4986514;28;20494;-71
2023/03/11 03:31:48;;;;;;;13.73;3.80;;;3.10;99.90;;;;;;4991408;28;20033;-71
2023/03/11 03:34:14;;;;;;;11.15;3.65;;;3.10;99.90;;;;;;4988347;28;20027;-71
2023/03/11 03:36:40;;;;;;;10.02;3.35;;;3.10;99.90;;;;;;4993249;28;20022;-71
2023/03/11 03:39:06;;;;;;;18.45;4.10;;;3.10;99.90;;;;;;4979857;28;20061;-70
2023/03/11 03:41:31;;;;;;;14.43;3.80;;;3.00;99.90;;;;;;4992686;28;20050;-70
2023/03/11 03:43:57;;;;;;;13.23;3.40;;;3.00;99.90;;;;;;4985128;28;20030;-70
2023/03/11 03:46:23;;;;;;;18.08;3.88;;;3.00;99.90;;;;;;4993386;28;20034;-70
2023/03/11 03:48:49;;;;;;;15.00;4.10;;;3.00;99.90;;;;;;4985530;28;20030;-70
2023/03/11 03:51:15;;;;;;;15.90;4.38;;;3.00;99.90;;;;;;4988189;28;20034;-70
2023/03/11 03:53:41;;;;;;;13.88;3.97;;;3.00;99.90;;;;;;4993037;28;20099;-70
2023/03/11 03:56:10;;;;;;;11.88;4.47;;;3.00;99.90;;;;;;4986626;28;20369;-70
2023/03/11 03:58:36;;;;;;;16.98;4.80;;;3.00;99.90;;;;;;4991172;28;20022;-70
2023/03/11 04:01:03;;;;;;;20.65;5.50;;;3.00;99.90;;;;;;4986698;28;20439;-71
2023/03/11 04:03:29;;;;;;;17.08;5.22;;;3.00;99.90;;;;;;5005771;28;20023;-71
2023/03/11 04:06:09;;;;;;;19.98;4.38;;;2.90;99.90;;;;;;4988109;28;20171;-70
2023/03/11 04:08:35;;;;;;;13.75;3.97;;;3.00;99.90;;;;;;4998319;28;20022;-70
2023/03/11 04:11:01;;;;;;;17.58;4.35;;;3.00;99.90;;;;;;4986531;28;20035;-70
2023/03/11 04:13:26;;;;;;;12.20;4.53;;;2.90;99.90;;;;;;4994568;28;20037;-70
2023/03/11 04:15:52;;;;;;;15.57;4.93;;;2.90;99.90;;;;;;4996782;28;20517;-70
2023/03/11 04:18:17;;;;;;;19.63;5.30;;;2.90;99.90;;;;;;4994913;28;20029;-70
2023/03/11 04:20:43;;;;;;;11.00;4.60;;;2.90;99.90;;;;;;4988560;28;20034;-70
2023/03/11 04:23:09;;;;;;;13.30;4.53;;;2.90;99.90;;;;;;4998644;28;20045;-70
2023/03/11 04:25:34;;;;;;;22.45;4.68;;;2.90;99.90;;;;;;5003198;28;20054;-70
2023/03/11 04:28:00;;;;;;;17.52;4.50;;;2.80;99.90;;;;;;4985370;28;20486;-70
2023/03/11 04:30:26;;;;;;;12.55;4.90;;;2.90;99.90;;;;;;5002125;28;20018;-70
2023/03/11 04:32:51;;;;;;;19.02;5.60;;;2.90;99.90;;;;;;4995778;28;20030;-69
2023/03/11 04:35:17;;;;;;;15.02;5.13;;;2.90;99.90;;;;;;4996352;28;20026;-70
2023/03/11 04:37:43;;;;;;;14.93;5.60;;;2.80;99.90;;;;;;4986706;28;20030;-69
2023/03/11 04:40:10;;;;;;;16.40;5.05;;;2.80;99.90;;;;;;4986893;28;20467;-70
2023/03/11 04:42:36;;;;;;;19.73;4.75;;;2.80;99.90;;;;;;4987571;28;20054;-70
2023/03/11 04:45:01;;;;;;;15.77;5.00;;;2.80;99.90;;;;;;4997215;28;20082;-70
2023/03/11 04:47:27;;;;;;;16.48;5.50;;;2.70;99.90;;;;;;4981555;28;20038;-69
2023/03/11 04:49:54;;;;;;;12.13;5.47;;;2.70;99.90;;;;;;4993599;28;20031;-69
2023/03/11 04:52:20;;;;;;;18.45;5.45;;;2.80;99.90;;;;;;4981344;28;20028;-70
2023/03/11 04:54:46;;;;;;;13.52;5.55;;;2.80;99.90;;;;;;4990407;28;20019;-70
2023/03/11 04:57:12;;;;;;;17.95;6.68;;;2.80;99.90;;;;;;4992151;28;20095;-70
2023/03/11 04:59:37;;;;;;;13.90;6.22;;;2.80;99.90;;;;;;4984618;28;20705;-70
2023/03/11 05:02:04;;;;;;;14.77;5.68;;;2.70;99.90;;;;;;4985672;28;20033;-70
2023/03/11 05:04:29;;;;;;;18.95;5.63;;;2.70;99.90;;;;;;4992459;28;20022;-70
2023/03/11 05:06:55;;;;;;;11.27;5.88;;;2.70;99.90;;;;;;4984663;28;20083;-69
2023/03/11 05:09:21;;;;;;;18.25;5.93;;;2.70;99.90;;;;;;4984377;28;20030;-70
2023/03/11 05:11:46;;;;;;;21.77;7.13;;;2.60;99.90;;;;;;4989093;28;20026;-69
2023/03/11 05:14:12;;;;;;;20.00;6.50;;;2.70;99.90;;;;;;4996858;28;20603;-70
2023/03/11 05:16:38;;;;;;;16.10;6.18;;;2.60;99.90;;;;;;4989339;28;20101;-69
2023/03/11 05:19:29;;;;;;;17.30;6.47;;;2.60;99.90;;;;;;4985292;28;20026;-70
2023/03/11 05:21:49;;;;;;;16.98;6.28;;;2.70;99.90;;;;;;4997296;28;20047;-69
2023/03/11 05:24:14;;;;;;;17.25;6.72;;;2.60;99.90;;;;;;4992831;28;20364;-70
2023/03/11 05:26:40;;;;;;;24.10;5.97;;;2.60;99.90;;;;;;4995765;28;20038;-70
2023/03/11 05:29:06;;;;;;;18.83;6.32;;;2.60;99.90;;;;;;4997161;28;20038;-70
2023/03/11 05:31:31;;;;;;;17.42;6.00;;;2.60;99.90;;;;;;5001027;28;20019;-70
2023/03/11 05:33:57;;;;;;;20.08;6.57;;;2.60;99.90;;;;;;4993446;28;20490;-69
2023/03/11 05:36:23;;;;;;;18.50;6.25;;;2.60;99.90;;;;;;4989320;28;20023;-69
2023/03/11 05:38:48;;;;;;;18.08;6.60;;;2.60;99.90;;;;;;4985546;28;20360;-69
2023/03/11 05:41:14;;;;;;;16.35;6.68;;;2.60;99.90;;;;;;4985252;28;20054;-69
2023/03/11 05:43:39;;;;;;;14.52;6.55;;;2.50;99.90;;;;;;4988065;28;20030;-70
2023/03/11 05:46:05;;;;;;;19.13;7.13;;;2.50;99.90;;;;;;4986739;28;20506;-69
2023/03/11 05:48:31;;;;;;;21.38;7.28;;;2.40;99.90;;;;;;4986855;28;20083;-69
2023/03/11 05:50:58;;;;;;;17.50;7.22;;;2.40;99.90;;;;;;5017700;27;20054;-69
2023/03/11 05:53:24;;;;;;;13.20;7.00;;;2.40;99.90;;;;;;5001966;28;20055;-69
2023/03/11 05:55:57;;;;;;;14.40;6.65;;;2.40;99.90;;;;;;4996922;28;20544;-69
2023/03/11 05:58:23;;;;;;;14.25;6.93;;;2.40;99.90;;;;;;4987248;28;20037;-69
2023/03/11 06:00:49;;;;;;;17.67;7.32;;;2.40;99.90;;;;;;4993059;28;20023;-69
2023/03/11 06:03:14;;;;;;;22.33;7.45;;;2.40;99.90;;;;;;5012974;28;20020;-70
2023/03/11 06:05:45;;;;;;;20.95;6.85;;;2.40;99.90;;;;;;4988744;28;20035;-70
2023/03/11 06:08:10;;;;;;;15.93;6.85;;;2.40;99.90;;;;;;4988520;28;20043;-69
2023/03/11 06:10:36;;;;;;;22.70;7.75;;;2.40;99.90;;;;;;4994461;28;20023;-70
2023/03/11 06:13:01;;;;;;;20.77;7.55;;;2.40;99.90;;;;;;4994054;28;20039;-69
2023/03/11 06:15:27;;;;;;;20.10;7.30;;;2.40;99.90;;;;;;4985232;28;20487;-69
2023/03/11 06:17:53;;;;;;;17.88;6.75;;;2.30;99.90;;;;;;4998803;28;20034;-69
2023/03/11 06:20:19;;;;;;;21.10;7.38;;;2.40;99.90;;;;;;4986674;28;20054;-70
2023/03/11 06:22:47;;;;;;;21.23;7.95;;;2.40;99.90;;;;;;4988119;28;20058;-69
2023/03/11 06:25:13;;;;;;;15.13;7.03;;;2.40;99.90;;;;;;4991177;28;20030;-69
2023/03/11 06:27:39;;;;;;;18.98;8.43;;;2.30;99.90;;;;;;4988730;28;20395;-69
2023/03/11 06:30:05;;;;;;;14.82;8.43;;;2.30;99.90;;;;;;4988694;28;20038;-69
2023/03/11 06:32:33;;;;;;;24.13;7.80;;;2.40;99.90;;;;;;4999495;28;20491;-69
2023/03/11 06:34:59;;;;;;;22.23;8.05;;;2.40;99.90;;;;;;4998204;28;20147;-69
2023/03/11 06:37:24;;;;;;;20.70;8.65;;;2.30;99.90;;;;;;5000288;28;20117;-69
2023/03/11 06:39:53;;;;;;;20.60;8.02;;;2.30;99.90;;;;;;4983773;28;20483;-69
2023/03/11 06:42:20;;;;;;;25.15;9.75;;;2.30;99.90;;;;;;4993033;28;20094;-69
2023/03/11 06:44:49;;;;;;;16.33;8.60;;;2.30;99.90;;;;;;4985800;28;20429;-69
2023/03/11 06:47:15;;;;;;;19.30;8.15;;;2.30;99.90;;;;;;4992172;28;20031;-69
2023/03/11 06:49:41;;;;;;;24.13;9.18;;;2.30;99.90;;;;;;4988138;28;20056;-69
2023/03/11 06:52:08;;;;;;;23.88;9.68;;;2.30;99.90;;;;;;4992228;28;20386;-69
2023/03/11 06:54:34;;;;;;;17.50;8.52;;;2.30;99.90;;;;;;4985951;28;20543;-69
2023/03/11 06:57:00;;;;;;;21.17;9.07;;;2.30;99.90;;;;;;4991556;28;20472;-69
2023/03/11 06:59:27;;;;;;;28.15;9.68;;;2.30;99.90;;;;;;4996521;28;20088;-69
2023/03/11 07:01:54;;;;;;;28.25;11.20;;;2.30;99.90;;;;;;5002780;28;20521;-69
2023/03/11 07:04:20;;;;;;;24.10;11.88;;;2.30;99.90;;;;;;4994444;28;20027;-69
2023/03/11 07:06:45;;;;;;;27.17;11.68;;;2.40;99.90;;;;;;5001399;28;20391;-69
2023/03/11 07:09:11;;;;;;;25.27;10.95;;;2.40;99.90;;;;;;4994210;28;20390;-69
2023/03/11 07:11:37;;;;;;;21.95;11.32;;;2.40;99.90;;;;;;4989353;28;20043;-69
2023/03/11 07:14:03;;;;;;;26.48;11.38;;;2.40;99.90;;;;;;5002390;28;20099;-69
2023/03/11 07:16:29;;;;;;;25.00;11.43;;;2.50;99.90;;;;;;4981503;28;20408;-69
2023/03/11 07:18:57;;;;;;;32.83;12.77;;;2.40;99.90;;;;;;4997795;28;20023;-69
2023/03/11 07:21:24;;;;;;;29.13;11.68;;;2.50;99.90;;;;;;4983070;28;20039;-69
2023/03/11 07:23:54;;;;;;;24.40;11.95;;;2.50;99.90;;;;;;4989781;28;20022;-69
2023/03/11 07:26:20;;;;;;;28.65;12.35;;;2.50;99.90;;;;;;4978809;28;20035;-69
2023/03/11 07:28:48;;;;;;;28.63;12.65;;;2.60;99.90;;;;;;4990955;28;20022;-69
2023/03/11 07:31:19;;;;;;;23.80;12.27;;;2.60;99.90;;;;;;4989671;28;20019;-69
2023/03/11 07:33:45;;;;;;;25.92;11.20;;;2.70;99.90;;;;;;4993050;28;20034;-69
2023/03/11 07:36:13;;;;;;;29.95;11.98;;;2.70;99.90;;;;;;4985976;28;20027;-69
2023/03/11 07:38:39;;;;;;;28.65;12.25;;;2.90;99.90;;;;;;4990527;28;20020;-69
2023/03/11 07:41:06;;;;;;;25.83;11.30;;;2.80;99.90;;;;;;4984104;28;20434;-69
2023/03/11 07:43:32;;;;;;;29.75;11.27;;;2.90;99.90;;;;;;4994839;28;20076;-69
2023/03/11 07:46:21;;;;;;;27.13;10.65;;;3.00;99.90;;;;;;4994661;28;20038;-70
2023/03/11 07:48:48;;;;;;;21.83;10.25;;;3.00;99.90;;;;;;4987050;28;20062;-69
2023/03/11 07:51:19;;;;;;;23.55;10.05;;;3.10;99.90;;;;;;4994733;28;20038;-69
2023/03/11 07:53:46;;;;;;;23.23;10.52;;;3.20;99.90;;;;;;4982229;28;20025;-69
2023/03/11 07:56:13;;;;;;;23.77;10.52;;;3.20;99.90;;;;;;4996336;28;20567;-69
2023/03/11 07:58:40;;;;;;;21.60;9.90;;;3.30;99.90;;;;;;4980385;28;20167;-71
2023/03/11 08:01:09;;;;;;;29.80;10.20;;;3.30;99.90;;;;;;4990492;28;20529;-69
2023/03/11 08:03:36;;;;;;;22.30;9.98;;;3.40;99.90;;;;;;4995972;28;20031;-70
2023/03/11 08:06:03;;;;;;;17.67;8.70;;;3.50;99.90;;;;;;4987113;28;20032;-70
2023/03/11 08:08:28;;;;;;;30.95;9.50;;;3.60;99.90;;;;;;4987210;28;20030;-70
2023/03/11 08:10:54;;;;;;;26.25;10.23;;;3.70;99.90;;;;;;4999123;28;20093;-70
2023/03/11 08:13:20;;;;;;;21.38;9.23;;;3.80;99.90;;;;;;4982574;28;20494;-70
2023/03/11 08:15:45;;;;;;;20.52;8.48;;;4.00;99.90;;;;;;4988157;28;20019;-70
2023/03/11 08:18:11;;;;;;;16.95;8.02;;;4.10;99.90;;;;;;4991294;28;20395;-71
2023/03/11 08:20:39;;;;;;;16.40;8.07;;;4.30;99.90;;;;;;4992824;28;20034;-70
2023/03/11 08:23:05;;;;;;;19.58;7.00;;;4.50;99.90;;;;;;4995851;28;20225;-71
2023/03/11 08:25:31;;;;;;;21.60;8.02;;;4.60;99.90;;;;;;4996040;28;20495;-71
2023/03/11 08:27:56;;;;;;;18.02;7.05;;;4.70;99.90;;;;;;4989519;28;20538;-71
2023/03/11 08:30:22;;;;;;;17.90;7.00;;;4.80;99.90;;;;;;4982736;28;20536;-72
2023/03/11 08:32:48;;;;;;;15.88;6.20;;;4.90;99.90;;;;;;4992763;28;20018;-72
2023/03/11 08:35:15;;;;;;;15.40;6.45;;;5.10;99.90;;;;;;4981837;28;20038;-71
2023/03/11 08:37:40;;;;;;;16.83;6.78;;;5.20;99.90;;;;;;4988988;28;20020;-72
2023/03/11 08:40:09;;;;;;;14.98;6.35;;;5.30;99.90;;;;;;4988474;28;20502;-71
2023/03/11 08:42:34;;;;;;;14.98;6.03;;;5.30;99.90;;;;;;5000992;28;20019;-71
2023/03/11 08:45:00;;;;;;;12.13;6.07;;;5.40;99.90;;;;;;4987417;28;20158;-70
2023/03/11 08:47:26;;;;;;;11.63;5.43;;;5.50;99.90;;;;;;4980322;28;20114;-71
2023/03/11 08:49:51;;;;;;;12.68;5.28;;;5.50;99.90;;;;;;4993317;28;20121;-72
2023/03/11 08:52:17;;;;;;;10.77;5.60;;;5.60;99.90;;;;;;4998903;28;20026;-69
2023/03/11 08:54:43;;;;;;;15.52;5.38;;;5.80;99.90;;;;;;4993454;28;20038;-70
2023/03/11 08:57:08;;;;;;;12.45;4.68;;;5.80;99.90;;;;;;4983122;28;20079;-70
2023/03/11 08:59:35;;;;;;;8.82;3.42;;;5.90;99.90;;;;;;4988808;28;20225;-70
2023/03/11 09:02:00;;;;;;;11.05;4.47;;;5.90;99.90;;;;;;4979003;28;20875;-70
2023/03/11 09:04:26;;;;;;;11.40;4.90;;;6.00;99.90;;;;;;4983309;28;20023;-70
2023/03/11 09:06:52;;;;;;;10.38;3.50;;;6.20;99.90;;;;;;4989881;28;20042;-71
2023/03/11 09:09:19;;;;;;;11.90;4.65;;;6.30;99.90;;;;;;4991419;28;20502;-71
2023/03/11 09:11:46;;;;;;;10.10;4.20;;;6.50;99.90;;;;;;4985037;28;20034;-71
2023/03/11 09:14:12;;;;;;;9.23;4.35;;;6.60;99.90;;;;;;4992792;28;20053;-69
2023/03/11 09:16:37;;;;;;;8.32;3.67;;;6.60;99.90;;;;;;4983052;28;20030;-70
2023/03/11 09:19:06;;;;;;;7.40;2.95;;;6.70;99.90;;;;;;4981837;28;20023;-71
2023/03/11 09:21:35;;;;;;;7.32;2.75;;;6.70;99.90;;;;;;4987067;28;20046;-70
2023/03/11 09:24:03;;;;;;;8.95;2.90;;;6.50;99.90;;;;;;4979393;28;20491;-70
2023/03/11 09:26:29;;;;;;;7.10;3.00;;;6.50;99.90;;;;;;4993567;28;20043;-71
2023/03/11 09:28:55;;;;;;;9.60;1.90;;;6.60;99.90;;;;;;4989950;28;20030;-71
2023/03/11 09:31:22;;;;;;;7.30;1.95;;;6.70;99.90;;;;;;4991536;28;20042;-71
2023/03/11 09:33:48;;;;;;;6.65;2.08;;;6.60;99.90;;;;;;4981868;28;20042;-71
2023/03/11 09:36:19;;;;;;;5.30;1.85;;;6.40;99.90;;;;;;4992211;28;20557;-72
2023/03/11 09:38:45;;;;;;;7.75;2.03;;;6.40;99.90;;;;;;4983211;28;20023;-71
2023/03/11 09:41:17;;;;;;;6.00;1.60;;;6.50;99.90;;;;;;4993391;28;20026;-72
2023/03/11 09:44:21;;;;;;;6.83;2.00;;;6.80;99.90;;;;;;4995241;28;20037;-73
2023/03/11 09:47:17;;;;;;;7.13;1.60;;;7.00;99.90;;;;;;4988424;28;20093;-72
2023/03/11 09:50:17;;;;;;;5.82;1.65;;;7.20;99.90;;;;;;4984166;28;20084;-72
2023/03/11 09:52:55;;;;;;;3.70;0.95;;;7.30;99.90;;;;;;4981909;28;20458;-72
2023/03/11 09:55:42;;;;;;;4.00;0.93;;;7.40;99.90;;;;;;4982824;28;20034;-73
2023/03/11 09:58:16;;;;;;;4.85;1.40;;;7.40;99.90;;;;;;4985195;28;20034;-73
2023/03/11 10:00:43;;;;;;;3.42;1.00;;;7.50;99.90;;;;;;4989272;28;20062;-74
2023/03/11 10:03:34;;;;;;;1.75;0.88;;;7.50;99.90;;;;;;4989162;28;20031;-73
2023/03/11 10:06:21;;;;;;;2.10;1.00;;;7.40;99.90;;;;;;4984602;28;20038;-73
2023/03/11 10:09:28;;;;;;;3.75;0.90;;;7.60;99.90;;;;;;4993940;28;20113;-72
2023/03/11 10:12:21;;;;;;;4.93;0.70;;;7.70;99.90;;;;;;4983750;28;20065;-73
2023/03/11 10:15:08;;;;;;;3.47;1.08;;;7.60;99.90;;;;;;4991467;28;20091;-73
2023/03/11 10:17:57;;;;;;;2.40;0.82;;;7.40;99.90;;;;;;4987438;28;20103;-73
2023/03/11 10:20:41;;;;;;;4.40;1.10;;;7.20;99.90;;;;;;4990029;28;20037;-73
2023/03/11 10:23:16;;;;;;;2.03;0.90;;;7.20;99.90;;;;;;4998852;28;20035;-71
2023/03/11 10:25:52;;;;;;;5.13;1.20;;;7.40;99.90;;;;;;4988636;28;20086;-70
2023/03/11 10:28:21;;;;;;;4.35;0.93;;;7.60;99.90;;;;;;4989489;28;20069;-71
2023/03/11 10:30:52;;;;;;;5.38;1.02;;;7.60;99.90;;;;;;4995421;28;20030;-73
2023/03/11 10:33:27;;;;;;;7.95;1.05;;;7.60;99.90;;;;;;4995171;28;20408;-70
2023/03/11 10:35:55;;;;;;;6.13;1.00;;;7.50;99.90;;;;;;4992122;28;20037;-70
2023/03/11 10:38:36;;;;;;;4.05;1.50;;;7.60;99.90;;;;;;4995121;28;20084;-71
2023/03/11 10:41:28;;;;;;;4.75;1.27;;;7.60;99.90;;;;;;4987329;28;20037;-72
2023/03/11 10:44:18;;;;;;;3.83;0.93;;;7.60;99.90;;;;;;4992945;28;20027;-70
2023/03/11 10:46:44;;;;;;;6.07;0.90;;;7.50;99.90;;;;;;4981832;28;20095;-72
2023/03/11 10:49:17;;;;;;;3.05;1.10;;;7.50;99.90;;;;;;4992702;28;20031;-71
2023/03/11 10:51:48;;;;;;;2.80;1.00;;;7.50;99.90;;;;;;4988958;28;20027;-71
2023/03/11 10:54:25;;;;;;;6.22;1.20;;;7.60;99.90;;;;;;4991755;28;20050;-72
2023/03/11 10:57:03;;;;;;;9.18;1.20;;;7.70;99.90;;;;;;5014591;28;20468;-72
2023/03/11 10:59:44;;;;;;;4.80;1.38;;;8.00;99.90;;;;;;4989662;28;20023;-72
2023/03/11 11:02:39;;;;;;;3.25;0.68;;;7.80;99.90;;;;;;4994930;28;20054;-72
2023/03/11 11:05:16;;;;;;;5.47;1.30;;;7.90;99.90;;;;;;4975488;28;20026;-73
2023/03/11 11:07:45;;;;;;;3.63;0.80;;;8.00;99.90;;;;;;4988431;28;20040;-72
2023/03/11 11:10:22;;;;;;;3.25;0.90;;;8.00;99.90;;;;;;5000540;28;20019;-73
2023/03/11 11:13:12;;;;;;;12.38;1.13;;;8.10;99.90;;;;;;5013614;28;20082;-72
2023/03/11 11:16:00;;;;;;;3.63;1.05;;;7.90;99.90;;;;;;5008832;28;20083;-72
2023/03/11 11:18:35;;;;;;;3.72;1.05;;;7.80;99.90;;;;;;4986536;28;20057;-72
2023/03/11 11:21:06;;;;;;;7.22;1.42;;;8.00;99.90;;;;;;5001450;28;20058;-73
2023/03/11 11:24:01;;;;;;;6.03;1.05;;;8.30;99.90;;;;;;5005661;28;20052;-73
2023/03/11 11:26:26;;;;;;;5.30;1.05;;;8.40;99.90;;;;;;5015407;28;20082;-72
2023/03/11 11:29:12;;;;;;;4.50;0.77;;;8.30;99.90;;;;;;4997540;28;20069;-73
2023/03/11 11:31:43;;;;;;;6.05;0.93;;;8.30;99.90;;;;;;5007403;28;20105;-72
2023/03/11 11:34:27;;;;;;;4.80;0.85;;;7.90;99.90;;;;;;4992905;28;20074;-72
2023/03/11 11:36:56;;;;;;;4.85;1.10;;;7.70;99.90;;;;;;5009433;28;20042;-69
2023/03/11 11:39:23;;;;;;;3.67;1.27;;;7.90;99.90;;;;;;5013140;28;20023;-69
2023/03/11 11:41:50;;;;;;;4.85;1.05;;;7.90;99.90;;;;;;4993730;28;20026;-70
2023/03/11 11:44:19;;;;;;;5.75;0.88;;;8.00;99.90;;;;;;5010759;28;20067;-70
2023/03/11 11:46:58;;;;;;;5.18;0.90;;;8.20;99.90;;;;;;4995200;28;20121;-70
2023/03/11 11:49:28;;;;;;;3.75;1.10;;;8.30;99.90;;;;;;4990924;28;20050;-70
2023/03/11 11:52:05;;;;;;;3.63;1.23;;;8.30;99.90;;;;;;4987601;28;20062;-70
2023/03/11 11:54:47;;;;;;;6.50;1.50;;;8.40;99.90;;;;;;4994644;28;20092;-70
2023/03/11 11:57:15;;;;;;;6.53;1.10;;;8.40;99.90;;;;;;5007581;28;20021;-70
2023/03/11 11:59:41;;;;;;;3.13;1.13;;;8.50;99.90;;;;;;4980090;28;20065;-70
2023/03/11 12:02:41;;;;;;;9.43;1.55;;;8.60;99.90;;;;;;4985451;28;20019;-69
2023/03/11 12:05:27;;;;;;;6.72;1.33;;;8.70;99.90;;;;;;4990382;28;20077;-71
2023/03/11 12:08:02;;;;;;;2.42;0.80;;;8.10;99.90;;;;;;4988797;28;20441;-70
2023/03/11 12:10:46;;;;;;;1.98;0.85;;;8.00;99.90;;;;;;4993606;28;20106;-71
2023/03/11 12:13:17;;;;;;;4.35;0.93;;;7.90;99.90;;;;;;4995747;28;20050;-70
2023/03/11 12:16:07;;;;;;;2.78;0.70;;;7.90;99.90;;;;;;4983527;28;20034;-70
2023/03/11 12:18:53;;;;;;;2.75;0.90;;;8.20;99.90;;;;;;4991433;28;20417;-70
2023/03/11 12:21:22;;;;;;;2.85;0.65;;;8.50;99.90;;;;;;4978764;28;20037;-70
2023/03/11 12:24:23;;;;;;;4.40;0.95;;;8.70;99.90;;;;;;4980638;28;20057;-69
2023/03/11 12:26:51;;;;;;;3.55;0.73;;;8.80;99.90;;;;;;5013463;28;20130;-71
2023/03/11 12:29:39;;;;;;;5.70;1.30;;;9.00;99.90;;;;;;4991675;28;20096;-70
2023/03/11 12:32:06;;;;;;;7.30;0.90;;;9.10;99.90;;;;;;4982900;28;20039;-70
2023/03/11 12:34:34;;;;;;;3.80;1.17;;;9.00;99.90;;;;;;4984475;28;20021;-70
2023/03/11 12:37:11;;;;;;;2.55;0.70;;;9.10;99.90;;;;;;4993584;28;20058;-69
2023/03/11 12:39:37;;;;;;;3.88;0.70;;;9.10;99.90;;;;;;4984021;28;20056;-70
2023/03/11 12:42:17;;;;;;;6.70;1.35;;;9.10;99.90;;;;;;5003534;28;20133;-70
2023/03/11 12:44:49;;;;;;;3.17;1.10;;;9.10;99.90;;;;;;4982856;28;20044;-69
2023/03/11 12:47:20;;;;;;;5.53;1.05;;;9.10;99.90;;;;;;4992797;28;20513;-72
2023/03/11 12:49:49;;;;;;;4.75;1.13;;;9.10;99.90;;;;;;4993583;28;20489;-73
2023/03/11 12:52:28;;;;;;;3.45;1.25;;;8.90;99.90;;;;;;4997220;28;20034;-72
2023/03/11 12:54:54;;;;;;;2.85;0.90;;;8.70;99.90;;;;;;5002780;28;20027;-71
2023/03/11 12:57:39;;;;;;;5.68;0.90;;;8.70;99.90;;;;;;4983375;28;20034;-71
2023/03/11 13:00:48;;;;;;;3.88;0.98;;;8.70;99.90;;;;;;4997952;28;20034;-72
2023/03/11 13:03:45;;;;;;;2.28;0.77;;;8.90;99.90;;;;;;4987424;28;20027;-70
2023/03/11 13:06:30;;;;;;;2.40;0.70;;;9.10;99.90;;;;;;5003948;28;20036;-70